createdAt,value
2019-02-28T00:01:32.358Z,6.73
2019-02-28T00:04:00.078Z,6.50
2019-02-28T00:06:28.285Z,6.10
2019-02-28T00:08:55.948Z,6.43
2019-02-28T00:11:24.218Z,5.73
2019-02-28T00:13:55.555Z,6.20
2019-02-28T00:16:21.932Z,5.97
2019-02-28T00:18:50.557Z,5.83
2019-02-28T00:21:18.733Z,6.07
2019-02-28T00:23:46.389Z,5.70
2019-02-28T00:26:14.052Z,5.83
2019-02-28T00:28:42.325Z,6.07
2019-02-28T00:31:14.202Z,6.00
2019-02-28T00:33:40.146Z,5.93
2019-02-28T00:36:08.122Z,5.20
2019-02-28T00:38:36.143Z,5.60
2019-02-28T00:41:04.593Z,5.50
2019-02-28T00:43:32.559Z,5.63
2019-02-28T00:46:01.009Z,5.37
2019-02-28T00:48:28.942Z,5.70
2019-02-28T00:50:58.548Z,5.50
2019-02-28T00:53:26.925Z,5.03
2019-02-28T00:55:54.942Z,5.37
2019-02-28T00:58:23.009Z,5.93
2019-02-28T01:00:51.494Z,5.50
2019-02-28T01:03:19.882Z,5.13
2019-02-28T01:05:47.911Z,5.40
2019-02-28T01:08:15.926Z,5.60
2019-02-28T01:10:44.489Z,5.27
2019-02-28T01:13:12.878Z,5.40
2019-02-28T01:15:44.604Z,5.47
2019-02-28T01:18:10.861Z,5.47
2019-02-28T01:20:38.897Z,6.10
2019-02-28T01:23:06.792Z,5.67
2019-02-28T01:25:37.220Z,5.87
2019-02-28T01:28:04.749Z,5.43
2019-02-28T01:30:32.665Z,5.70
2019-02-28T01:33:01.338Z,6.33
2019-02-28T01:35:29.288Z,6.17
2019-02-28T01:37:56.954Z,5.80
2019-02-28T01:40:24.625Z,5.63
2019-02-28T01:42:54.845Z,6.00
2019-02-28T01:45:23.081Z,6.10
2019-02-28T01:47:51.793Z,6.40
2019-02-28T01:50:20.371Z,5.93
2019-02-28T01:52:48.044Z,5.90
2019-02-28T01:55:15.705Z,5.83
2019-02-28T01:57:44.447Z,5.90
2019-02-28T02:00:13.196Z,6.23
2019-02-28T02:02:41.132Z,6.10
2019-02-28T02:05:09.408Z,6.10
2019-02-28T02:07:37.414Z,5.90
2019-02-28T02:10:08.658Z,5.90
2019-02-28T02:12:36.312Z,5.63
2019-02-28T02:15:06.373Z,6.30
2019-02-28T02:17:35.435Z,6.30
2019-02-28T02:20:05.143Z,6.07
2019-02-28T02:22:32.793Z,5.97
2019-02-28T02:25:02.858Z,6.10
2019-02-28T02:27:30.541Z,6.23
2019-02-28T02:29:58.593Z,6.00
2019-02-28T02:32:26.486Z,6.90
2019-02-28T02:34:54.428Z,6.70
2019-02-28T02:37:26.309Z,6.30
2019-02-28T02:39:52.483Z,6.00
2019-02-28T02:42:20.450Z,7.00
2019-02-28T02:44:48.432Z,6.63
2019-02-28T02:47:16.361Z,6.70
2019-02-28T02:49:44.318Z,7.00
2019-02-28T02:52:11.973Z,6.53
2019-02-28T02:54:40.205Z,7.20
2019-02-28T02:57:08.169Z,7.07
2019-02-28T02:59:39.094Z,7.03
2019-02-28T03:02:06.143Z,6.30
2019-02-28T03:04:34.129Z,6.43
2019-02-28T03:07:01.813Z,6.83
2019-02-28T03:09:29.467Z,6.50
2019-02-28T03:11:58.724Z,7.03
2019-02-28T03:14:27.246Z,7.67
2019-02-28T03:16:55.165Z,7.00
2019-02-28T03:19:23.172Z,7.53
2019-02-28T03:21:52.579Z,6.40
2019-02-28T03:24:20.952Z,6.70
2019-02-28T03:26:48.614Z,7.20
2019-02-28T03:29:16.522Z,7.10
2019-02-28T03:31:55.245Z,7.10
2019-02-28T03:34:14.495Z,7.20
2019-02-28T03:36:42.766Z,7.30
2019-02-28T03:39:10.723Z,6.53
2019-02-28T03:41:38.793Z,7.00
2019-02-28T03:44:07.128Z,7.87
2019-02-28T03:46:35.200Z,6.70
2019-02-28T03:49:07.107Z,7.30
2019-02-28T03:51:32.894Z,7.13
2019-02-28T03:54:01.198Z,7.27
2019-02-28T03:56:29.203Z,7.50
2019-02-28T03:58:57.451Z,7.03
2019-02-28T04:01:25.772Z,7.17
2019-02-28T04:03:54.053Z,7.60
2019-02-28T04:06:22.055Z,7.30
2019-02-28T04:08:49.729Z,7.20
2019-02-28T04:11:17.681Z,7.10
2019-02-28T04:13:45.350Z,7.43
2019-02-28T04:16:13.626Z,8.20
2019-02-28T04:18:46.142Z,8.40
2019-02-28T04:21:12.182Z,7.57
2019-02-28T04:23:40.915Z,8.17
2019-02-28T04:26:09.193Z,8.43
2019-02-28T04:28:37.483Z,8.10
2019-02-28T04:31:05.768Z,8.20
2019-02-28T04:33:37.530Z,7.40
2019-02-28T04:36:03.173Z,8.17
2019-02-28T04:38:31.590Z,8.03
2019-02-28T04:41:00.030Z,8.03
2019-02-28T04:43:27.769Z,8.23
2019-02-28T04:45:57.614Z,8.63
2019-02-28T04:48:25.049Z,8.80
2019-02-28T04:50:53.059Z,7.97
2019-02-28T04:53:21.001Z,8.10
2019-02-28T04:55:48.971Z,8.30
2019-02-28T04:58:16.937Z,7.83
2019-02-28T05:00:44.930Z,7.47
2019-02-28T05:03:12.920Z,8.27
2019-02-28T05:05:40.593Z,8.13
2019-02-28T05:08:08.253Z,7.90
2019-02-28T05:10:35.916Z,8.03
2019-02-28T05:13:03.674Z,7.60
2019-02-28T05:15:37.398Z,8.03
2019-02-28T05:18:01.799Z,7.73
2019-02-28T05:20:29.721Z,7.83
2019-02-28T05:22:59.284Z,7.77
2019-02-28T05:25:28.439Z,8.47
2019-02-28T05:27:56.753Z,8.43
2019-02-28T05:30:24.413Z,8.30
2019-02-28T05:32:52.397Z,8.00
2019-02-28T05:35:25.475Z,8.50
2019-02-28T05:37:51.536Z,8.50
2019-02-28T05:40:19.465Z,8.10
2019-02-28T05:42:47.389Z,9.10
2019-02-28T05:45:15.798Z,8.63
2019-02-28T05:47:46.705Z,9.07
2019-02-28T05:50:16.827Z,8.30
2019-02-28T05:52:43.873Z,9.80
2019-02-28T05:55:11.540Z,9.30
2019-02-28T05:57:43.544Z,10.23
2019-02-28T06:00:10.082Z,9.10
2019-02-28T06:02:38.134Z,8.60
2019-02-28T06:05:08.413Z,8.90
2019-02-28T06:07:36.298Z,9.00
2019-02-28T06:10:04.700Z,8.90
2019-02-28T06:12:32.344Z,8.83
2019-02-28T06:15:03.260Z,9.53
2019-02-28T06:17:30.573Z,9.10
2019-02-28T06:19:58.226Z,8.70
2019-02-28T06:22:26.213Z,8.40
2019-02-28T06:24:54.774Z,9.73
2019-02-28T06:27:24.286Z,9.60
2019-02-28T06:29:52.674Z,9.40
2019-02-28T06:32:23.612Z,9.40
2019-02-28T06:34:50.329Z,10.27
2019-02-28T06:37:18.355Z,9.53
2019-02-28T06:39:46.326Z,10.03
2019-02-28T06:42:14.365Z,10.43
2019-02-28T06:44:42.376Z,10.67
2019-02-28T06:47:11.288Z,10.73
2019-02-28T06:49:41.837Z,10.50
2019-02-28T06:52:10.271Z,10.60
2019-02-28T06:54:39.922Z,11.87
2019-02-28T06:57:08.069Z,11.60
2019-02-28T06:59:39.128Z,10.80
2019-02-28T07:02:08.778Z,11.27
2019-02-28T07:04:36.502Z,10.70
2019-02-28T07:07:07.428Z,10.50
2019-02-28T07:09:36.438Z,10.30
2019-02-28T07:12:04.494Z,11.20
2019-02-28T07:14:32.465Z,11.77
2019-02-28T07:17:00.841Z,10.70
2019-02-28T07:19:28.602Z,11.13
2019-02-28T07:21:56.537Z,11.47
2019-02-28T07:24:24.234Z,11.37
2019-02-28T07:26:53.029Z,11.70
2019-02-28T07:29:21.379Z,12.10
2019-02-28T07:31:49.287Z,11.70
2019-02-28T07:34:21.993Z,11.50
2019-02-28T07:36:47.252Z,12.77
2019-02-28T07:39:15.538Z,13.00
2019-02-28T07:41:43.885Z,15.40
2019-02-28T07:44:11.914Z,13.90
2019-02-28T07:46:42.312Z,13.90
2019-02-28T07:49:09.325Z,14.50
2019-02-28T07:51:37.054Z,14.50
2019-02-28T07:54:05.404Z,14.97
2019-02-28T07:56:33.450Z,15.00
2019-02-28T07:59:05.292Z,14.50
2019-02-28T08:01:31.421Z,17.27
2019-02-28T08:03:59.086Z,14.73
2019-02-28T08:06:26.770Z,14.50
2019-02-28T08:08:55.357Z,14.03
2019-02-28T08:11:23.293Z,14.37
2019-02-28T08:13:51.324Z,13.50
2019-02-28T08:16:19.326Z,12.50
2019-02-28T08:18:47.006Z,13.37
2019-02-28T08:21:14.733Z,14.00
2019-02-28T08:23:43.056Z,13.57
2019-02-28T08:26:10.753Z,14.33
2019-02-28T08:28:39.001Z,15.40
2019-02-28T08:31:07.413Z,16.73
2019-02-28T08:33:35.844Z,17.30
2019-02-28T08:36:05.307Z,17.10
2019-02-28T08:38:34.373Z,16.23
2019-02-28T08:41:02.198Z,18.20
2019-02-28T08:43:30.493Z,19.63
2019-02-28T08:45:58.795Z,18.50
2019-02-28T08:48:31.592Z,18.47
2019-02-28T08:50:56.790Z,17.30
2019-02-28T08:53:24.543Z,16.70
2019-02-28T08:55:53.120Z,17.40
2019-02-28T08:58:20.793Z,18.00
2019-02-28T09:00:48.549Z,18.03
2019-02-28T09:03:16.478Z,17.33
2019-02-28T09:05:44.470Z,17.43
2019-02-28T09:08:12.730Z,17.47
2019-02-28T09:10:43.581Z,18.23
2019-02-28T09:13:10.409Z,16.63
2019-02-28T09:15:38.325Z,16.77
2019-02-28T09:18:07.335Z,17.30
2019-02-28T09:20:35.173Z,17.37
2019-02-28T09:23:03.252Z,16.93
2019-02-28T09:25:31.422Z,19.10
2019-02-28T09:27:59.106Z,17.10
2019-02-28T09:30:29.631Z,17.00
2019-02-28T09:32:58.172Z,18.20
2019-02-28T09:35:26.382Z,18.07
2019-02-28T09:37:54.448Z,17.50
2019-02-28T09:40:25.819Z,18.10
2019-02-28T09:42:52.729Z,18.00
2019-02-28T09:45:20.795Z,18.17
2019-02-28T09:47:48.797Z,18.03
2019-02-28T09:50:19.489Z,18.80
2019-02-28T09:52:47.415Z,17.03
2019-02-28T09:55:15.569Z,16.80
2019-02-28T09:57:43.237Z,17.10
2019-02-28T10:00:12.752Z,18.07
2019-02-28T10:02:43.979Z,17.63
2019-02-28T10:05:11.760Z,18.50
2019-02-28T10:07:40.114Z,19.53
2019-02-28T10:10:09.321Z,20.30
2019-02-28T10:12:39.476Z,19.23
2019-02-28T10:15:08.189Z,19.63
2019-02-28T10:17:36.236Z,19.53
2019-02-28T10:20:03.997Z,20.80
2019-02-28T10:22:32.007Z,20.90
2019-02-28T10:24:59.950Z,22.33
2019-02-28T10:27:27.712Z,21.47
2019-02-28T10:29:55.354Z,21.70
2019-02-28T10:32:23.033Z,22.30
2019-02-28T10:34:51.260Z,23.57
2019-02-28T10:37:19.296Z,22.30
2019-02-28T10:39:48.570Z,23.57
2019-02-28T10:42:16.880Z,24.00
2019-02-28T10:44:44.929Z,25.93
2019-02-28T10:47:13.211Z,25.50
2019-02-28T10:49:41.238Z,26.73
2019-02-28T10:52:09.319Z,25.47
2019-02-28T10:54:37.281Z,25.40
2019-02-28T10:57:06.056Z,23.27
2019-02-28T10:59:34.434Z,23.13
2019-02-28T11:02:02.365Z,25.27
2019-02-28T11:04:30.578Z,24.70
2019-02-28T11:06:59.347Z,23.60
2019-02-28T11:09:28.733Z,25.03
2019-02-28T11:11:57.241Z,23.10
2019-02-28T11:14:25.008Z,21.93
2019-02-28T11:16:58.938Z,24.73
2019-02-28T11:19:23.473Z,23.67
2019-02-28T11:21:51.736Z,22.60
2019-02-28T11:24:20.636Z,21.57
2019-02-28T11:26:49.132Z,22.70
2019-02-28T11:29:17.736Z,22.37
2019-02-28T11:31:46.036Z,21.20
2019-02-28T11:34:15.014Z,19.97
2019-02-28T11:36:44.820Z,20.80
2019-02-28T11:39:15.952Z,20.53
2019-02-28T11:41:43.890Z,20.20
2019-02-28T11:44:12.013Z,21.10
2019-02-28T11:46:40.703Z,19.73
2019-02-28T11:49:08.385Z,19.97
2019-02-28T11:51:36.321Z,20.33
2019-02-28T11:54:04.599Z,19.10
2019-02-28T11:56:32.298Z,18.43
2019-02-28T11:59:00.230Z,19.17
2019-02-28T12:01:28.669Z,17.90
2019-02-28T12:03:56.633Z,16.90
2019-02-28T12:06:25.756Z,18.00
2019-02-28T12:08:54.349Z,16.80
2019-02-28T12:11:22.302Z,17.03
2019-02-28T12:13:51.738Z,19.10
2019-02-28T12:16:20.658Z,17.90
2019-02-28T12:18:48.927Z,18.23
2019-02-28T12:21:17.278Z,17.07
2019-02-28T12:23:45.613Z,17.90
2019-02-28T12:26:14.389Z,17.03
2019-02-28T12:28:43.295Z,18.60
2019-02-28T12:31:11.357Z,18.93
2019-02-28T12:33:39.692Z,19.63
2019-02-28T12:36:08.054Z,18.30
2019-02-28T12:38:35.997Z,19.00
2019-02-28T12:41:03.946Z,19.90
2019-02-28T12:43:32.189Z,20.60
2019-02-28T12:46:00.830Z,20.23
2019-02-28T12:48:29.130Z,22.20
2019-02-28T12:50:56.793Z,22.80
2019-02-28T12:53:25.498Z,21.90
2019-02-28T12:55:53.548Z,21.20
2019-02-28T12:58:21.592Z,22.93
2019-02-28T13:00:49.814Z,24.27
2019-02-28T13:03:20.303Z,23.23
2019-02-28T13:05:49.337Z,22.30
2019-02-28T13:08:17.145Z,26.30
2019-02-28T13:10:45.362Z,28.00
2019-02-28T13:13:13.643Z,31.07
2019-02-28T13:15:45.430Z,30.30
2019-02-28T13:18:11.636Z,32.40
2019-02-28T13:20:39.998Z,33.70
2019-02-28T13:23:07.764Z,33.53
2019-02-28T13:25:36.149Z,35.93
2019-02-28T13:28:03.821Z,36.63
2019-02-28T13:30:31.786Z,35.50
2019-02-28T13:32:59.616Z,34.13
2019-02-28T13:35:28.778Z,32.97
2019-02-28T13:37:56.849Z,31.43
2019-02-28T13:40:25.289Z,29.90
2019-02-28T13:42:52.981Z,30.20
2019-02-28T13:45:23.237Z,29.60
2019-02-28T13:47:50.597Z,29.73
2019-02-28T13:50:22.117Z,30.20
2019-02-28T13:52:52.205Z,29.40
2019-02-28T13:55:19.964Z,29.00
2019-02-28T13:57:48.137Z,30.80
2019-02-28T14:00:18.054Z,29.40
2019-02-28T14:02:46.398Z,28.50
2019-02-28T14:05:14.304Z,23.20
2019-02-28T14:07:42.322Z,21.50
2019-02-28T14:10:11.550Z,20.70
2019-02-28T14:12:39.634Z,20.00
2019-02-28T14:15:08.421Z,21.83
2019-02-28T14:17:36.710Z,20.53
2019-02-28T14:20:05.410Z,20.47
2019-02-28T14:22:33.338Z,21.33
2019-02-28T14:25:05.113Z,21.07
2019-02-28T14:27:31.194Z,21.43
2019-02-28T14:29:59.492Z,21.83
2019-02-28T14:32:27.413Z,19.80
2019-02-28T14:34:57.262Z,20.67
2019-02-28T14:37:24.741Z,21.70
2019-02-28T14:39:53.045Z,21.20
2019-02-28T14:42:21.014Z,22.07
2019-02-28T14:44:48.661Z,20.43
2019-02-28T14:47:16.882Z,23.20
2019-02-28T14:49:44.870Z,21.60
2019-02-28T14:52:14.288Z,22.07
2019-02-28T14:54:42.806Z,21.10
2019-02-28T14:57:13.392Z,19.40
2019-02-28T14:59:41.560Z,21.20
2019-02-28T15:02:10.095Z,19.43
2019-02-28T15:04:39.745Z,19.90
2019-02-28T15:07:08.377Z,19.53
2019-02-28T15:09:36.040Z,18.87
2019-02-28T15:12:04.230Z,17.47
2019-02-28T15:14:32.610Z,18.40
2019-02-28T15:17:01.945Z,18.33
2019-02-28T15:19:30.506Z,16.30
2019-02-28T15:21:58.281Z,15.40
2019-02-28T15:24:26.749Z,15.60
2019-02-28T15:26:54.760Z,14.03
2019-02-28T15:29:23.395Z,13.73
2019-02-28T15:31:52.786Z,13.30
2019-02-28T15:34:22.384Z,13.20
2019-02-28T15:36:50.261Z,12.37
2019-02-28T15:39:18.452Z,12.70
2019-02-28T15:41:46.597Z,12.47
2019-02-28T15:44:14.638Z,12.97
2019-02-28T15:46:43.865Z,13.70
2019-02-28T15:49:12.463Z,12.87
2019-02-28T15:51:40.732Z,11.13
2019-02-28T15:54:09.062Z,12.33
2019-02-28T15:56:36.990Z,12.70
2019-02-28T15:59:05.359Z,12.23
2019-02-28T16:01:33.550Z,12.00
2019-02-28T16:04:01.593Z,11.83
2019-02-28T16:06:30.022Z,11.23
2019-02-28T16:08:58.401Z,11.77
2019-02-28T16:11:26.061Z,12.50
2019-02-28T16:13:53.735Z,13.00
2019-02-28T16:16:24.755Z,12.23
2019-02-28T16:18:51.463Z,18.90
2019-02-28T16:21:19.392Z,11.40
2019-02-28T16:23:47.421Z,10.80
2019-02-28T16:26:18.298Z,11.40
2019-02-28T16:28:45.597Z,10.70
2019-02-28T16:31:13.814Z,10.70
2019-02-28T16:33:41.795Z,10.20
2019-02-28T16:36:10.224Z,8.63
2019-02-28T16:38:38.261Z,8.57
2019-02-28T16:41:06.884Z,7.77
2019-02-28T16:43:34.616Z,7.77
2019-02-28T16:46:02.640Z,7.20
2019-02-28T16:48:33.489Z,7.03
2019-02-28T16:51:00.858Z,7.03
2019-02-28T16:53:28.833Z,7.63
2019-02-28T16:55:56.832Z,6.67
2019-02-28T16:58:24.769Z,5.70
2019-02-28T17:00:53.406Z,6.00
2019-02-28T17:03:21.070Z,5.67
2019-02-28T17:05:49.128Z,5.57
2019-02-28T17:08:18.638Z,6.20
2019-02-28T17:10:47.705Z,5.70
2019-02-28T17:13:35.602Z,5.70
2019-02-28T17:16:07.518Z,5.47
2019-02-28T17:18:35.804Z,5.60
2019-02-28T17:21:04.149Z,6.00
2019-02-28T17:23:33.600Z,6.10
2019-02-28T17:26:01.995Z,7.40
2019-02-28T17:29:00.710Z,5.63
2019-02-28T17:31:44.444Z,5.33
2019-02-28T17:34:15.269Z,4.90
2019-02-28T17:36:44.110Z,5.50
2019-02-28T17:39:14.935Z,5.30
2019-02-28T17:41:43.090Z,5.93
2019-02-28T17:44:21.807Z,6.50
2019-02-28T17:46:50.634Z,5.10
2019-02-28T17:49:47.082Z,5.70
2019-02-28T17:52:17.775Z,5.70
2019-02-28T17:55:20.702Z,5.30
2019-02-28T17:58:09.126Z,5.60
2019-02-28T18:00:41.958Z,5.63
2019-02-28T18:03:27.690Z,5.47
2019-02-28T18:06:13.514Z,5.73
2019-02-28T18:09:01.142Z,5.40
2019-02-28T18:11:35.974Z,5.97
2019-02-28T18:14:08.568Z,6.00
2019-02-28T18:16:58.619Z,6.20
2019-02-28T18:19:51.145Z,5.70
2019-02-28T18:22:43.444Z,6.20
2019-02-28T18:25:29.689Z,6.90
2019-02-28T18:28:35.033Z,7.00
2019-02-28T18:31:09.896Z,6.30
2019-02-28T18:33:41.808Z,7.07
2019-02-28T18:36:09.847Z,6.50
2019-02-28T18:38:37.534Z,7.60
2019-02-28T18:41:06.497Z,7.47
2019-02-28T18:43:34.514Z,6.80
2019-02-28T18:46:02.490Z,6.37
2019-02-28T18:48:30.701Z,5.83
2019-02-28T18:50:58.725Z,6.30
2019-02-28T18:53:26.664Z,5.90
2019-02-28T18:55:54.773Z,6.30
2019-02-28T18:58:22.788Z,5.83
2019-02-28T19:00:51.254Z,5.70
2019-02-28T19:03:19.537Z,6.10
2019-02-28T19:05:47.208Z,7.03
2019-02-28T19:08:14.930Z,6.77
2019-02-28T19:10:42.598Z,6.43
2019-02-28T19:13:10.597Z,6.33
2019-02-28T19:15:38.663Z,5.43
2019-02-28T19:18:09.487Z,5.67
2019-02-28T19:20:37.132Z,5.90
2019-02-28T19:23:04.792Z,5.87
2019-02-28T19:25:33.097Z,6.20
2019-02-28T19:28:02.146Z,5.80
2019-02-28T19:30:30.170Z,6.70
2019-02-28T19:32:58.105Z,6.00
2019-02-28T19:35:26.042Z,6.30
2019-02-28T19:37:53.754Z,6.57
2019-02-28T19:40:21.419Z,7.17
2019-02-28T19:42:49.084Z,7.07
2019-02-28T19:45:17.126Z,6.53
2019-02-28T19:47:45.175Z,8.17
2019-02-28T19:50:13.161Z,7.23
2019-02-28T19:52:41.380Z,8.10
2019-02-28T19:55:10.177Z,7.90
2019-02-28T19:57:37.836Z,7.50
2019-02-28T20:00:05.813Z,7.67
2019-02-28T20:02:34.066Z,8.50
2019-02-28T20:05:02.242Z,7.93
2019-02-28T20:07:30.318Z,7.53
2019-02-28T20:09:58.005Z,7.10
2019-02-28T20:12:25.985Z,7.30
2019-02-28T20:14:53.982Z,7.30
2019-02-28T20:17:22.192Z,7.77
2019-02-28T20:19:50.475Z,8.67
2019-02-28T20:22:18.439Z,7.67
2019-02-28T20:24:46.356Z,7.90
2019-02-28T20:27:14.031Z,7.57
2019-02-28T20:29:41.985Z,8.27
2019-02-28T20:32:10.071Z,8.67
2019-02-28T20:34:37.746Z,8.43
2019-02-28T20:37:05.686Z,7.77
2019-02-28T20:39:33.710Z,8.67
2019-02-28T20:42:01.733Z,7.50
2019-02-28T20:44:30.042Z,7.40
2019-02-28T20:46:58.471Z,7.27
2019-02-28T20:49:26.481Z,7.20
2019-02-28T20:51:55.310Z,6.87
2019-02-28T20:54:23.717Z,7.43
2019-02-28T20:56:51.375Z,6.60
2019-02-28T20:59:19.825Z,6.90
2019-02-28T21:01:47.478Z,7.97
2019-02-28T21:04:15.418Z,7.97
2019-02-28T21:06:43.597Z,7.90
2019-02-28T21:09:12.223Z,8.13
2019-02-28T21:11:40.286Z,8.40
2019-02-28T21:14:08.251Z,6.47
2019-02-28T21:16:36.285Z,6.80
2019-02-28T21:19:04.245Z,6.07
2019-02-28T21:21:32.430Z,7.10
2019-02-28T21:24:00.636Z,6.70
2019-02-28T21:26:28.918Z,7.70
2019-02-28T21:28:57.297Z,7.37
2019-02-28T21:31:25.707Z,8.10
2019-02-28T21:33:53.657Z,7.60
2019-02-28T21:36:21.701Z,7.97
2019-02-28T21:38:49.366Z,8.60
2019-02-28T21:41:17.327Z,8.33
2019-02-28T21:43:44.986Z,7.60
2019-02-28T21:46:12.769Z,9.00
2019-02-28T21:48:41.105Z,9.00
2019-02-28T21:51:08.774Z,9.10
2019-02-28T21:53:36.477Z,9.77
2019-02-28T21:56:04.754Z,9.13
2019-02-28T21:58:32.772Z,9.40
2019-02-28T22:01:00.745Z,8.90
2019-02-28T22:03:29.025Z,11.03
2019-02-28T22:05:56.997Z,11.67
2019-02-28T22:08:25.228Z,11.60
2019-02-28T22:10:53.163Z,10.87
2019-02-28T22:13:20.854Z,11.13
2019-02-28T22:15:48.526Z,10.70
2019-02-28T22:18:16.890Z,10.70
2019-02-28T22:20:44.566Z,10.63
2019-02-28T22:23:12.888Z,10.40
2019-02-28T22:25:40.565Z,11.13
2019-02-28T22:28:09.206Z,10.80
2019-02-28T22:31:02.431Z,10.10
2019-02-28T22:33:41.661Z,10.30
2019-02-28T22:36:12.294Z,10.50
2019-02-28T22:38:40.377Z,10.90
2019-02-28T22:41:08.341Z,10.63
2019-02-28T22:43:36.308Z,10.80
2019-02-28T22:46:04.441Z,11.50
2019-02-28T22:48:32.437Z,11.23
2019-02-28T22:51:01.042Z,11.07
2019-02-28T22:53:29.326Z,12.10
2019-02-28T22:55:57.348Z,12.13
2019-02-28T22:58:25.288Z,10.73
2019-02-28T23:01:09.309Z,11.83
2019-02-28T23:03:37.568Z,11.30
2019-02-28T23:06:05.781Z,10.63
2019-02-28T23:08:33.701Z,12.00
2019-02-28T23:11:01.382Z,11.43
2019-02-28T23:13:29.314Z,11.63
2019-02-28T23:15:57.793Z,11.47
2019-02-28T23:18:25.953Z,11.47
2019-02-28T23:20:53.941Z,10.50
2019-02-28T23:23:22.145Z,11.90
2019-02-28T23:25:50.253Z,11.53
2019-02-28T23:28:28.892Z,10.97
2019-02-28T23:31:19.004Z,11.73
2019-02-28T23:33:46.713Z,11.23
2019-02-28T23:36:14.729Z,12.07
2019-02-28T23:38:43.202Z,10.80
2019-02-28T23:41:10.941Z,9.20
2019-02-28T23:43:38.601Z,7.33
2019-02-28T23:46:06.774Z,8.00
2019-02-28T23:48:34.702Z,6.87
2019-02-28T23:51:02.683Z,6.40
2019-02-28T23:53:30.925Z,5.87
2019-02-28T23:55:59.027Z,5.83
2019-02-28T23:58:27.056Z,5.63
